This is the latest recevied weather packets stored in our database for station/object KD5GAT-51. If no packets are shown the sender has not sent any weather packets the latest 10 day(s).
| Time | Temp. | Humidity | Pressure | Rain* | Wind** | Luminosity | Snow |
|---|---|---|---|---|---|---|---|
| 1778112638 | 23.89° C | 81% | 1013.1 hPa | - | - | - | - |
| 1778111739 | 24.44° C | 79% | 1012.8 hPa | - | - | - | - |
| 1778110838 | 25.56° C | 73% | 1012.5 hPa | - | - | - | - |
| 1778109938 | 27.22° C | 70% | 1012.3 hPa | - | - | - | - |
| 1778109037 | 29.44° C | 64% | 1011.9 hPa | - | - | - | - |
| 1778108137 | 28.89° C | 67% | 1011.9 hPa | - | - | - | - |
| 1778107237 | 28.33° C | 74% | 1011.7 hPa | - | - | - | - |
| 1778106337 | 28.89° C | 75% | 1011.4 hPa | - | - | - | - |
| 1778105437 | 28.89° C | 75% | 1011.3 hPa | - | - | - | - |
| 1778104545 | 31.67° C | 67% | 1011 hPa | - | - | - | - |
| 1778103644 | 33.33° C | 58% | 1011.1 hPa | - | - | - | - |
| 1778102744 | 34.44° C | 49% | 1011.1 hPa | - | - | - | - |
| 1778101844 | 35° C | 47% | 1011.2 hPa | - | - | - | - |
| 1778100944 | 35.56° C | 47% | 1011.4 hPa | - | - | - | - |
| 1778100044 | 35° C | 49% | 1011.3 hPa | - | - | - | - |
| 1778099143 | 35° C | 49% | 1011.5 hPa | - | - | - | - |
| 1778098243 | 35.56° C | 49% | 1011.9 hPa | - | - | - | - |
| 1778097343 | 35.56° C | 48% | 1011.9 hPa | - | - | - | - |
| 1778096443 | 35.56° C | 51% | 1011.9 hPa | - | - | - | - |
| 1778095543 | 33.89° C | 57% | 1011.9 hPa | - | - | - | - |
| 1778094643 | 33.89° C | 59% | 1012.1 hPa | - | - | - | - |
| 1778093742 | 33.89° C | 59% | 1012.2 hPa | - | - | - | - |
| 1778092842 | 32.78° C | 65% | 1012.5 hPa | - | - | - | - |
| 1778091942 | 31.67° C | 73% | 1012.8 hPa | - | - | - | - |
| 1778091042 | 31.67° C | 69% | 1013 hPa | - | - | - | - |
* Rain since midnight (hover to see other rain measurements)
** Current wind speed in m/s (hover to see current wind gust speed)